»·PEaware :: SKY213 KFHR-KORS

SKY213 :: KFHR-KORS

FLIGHT INFORMATION

Flight Status: Arrived
Operator:
Sky High Charters
More flights by this operator :: More flights under this callsign
Pilot: Shaurye C. (26796)
Aircraft: CIRRUS VISIONJET
(SF50)
More flights by this aircraft type
Origin: KFHR Friday Harbor
United States
Destination: KORS Orcas Island
United States
More flights between these airports :: More routes between these airports
Route: FHR ORCUS
File this flight plan on PilotEdge
Remarks:
Altitude:
(Current/Filed)
5,000ft
Speed:
(Current/Filed)
220kts
Departed: 24-May-20 01:01 PM
Arrived: 24-May-20 01:38 PM
Distance/Time
Traveled:
12nm/0:37
Distance/Time
To Go:
Arrived

Flight Plot

Page will automatically refresh every two minutes.

Flight plan parsing failed; only flown route is shown


Map Options




Map Legend


Flown Route
Filed Route
Departure Airport
Arrival Airport
Navaid (VOR, NDB)
Fix

Horizontal Profiles

Position Reports

Time Latitude Longitude Heading Altitude Ground
Speed
24-May-20 12:56 48.524818 -123.026056 265 115ft 0kts
24-May-20 12:57 48.524818 -123.026056 265 115ft 0kts
24-May-20 12:58 48.524818 -123.026056 264 115ft 0kts
24-May-20 12:59 48.526203 -123.025293 358 115ft 11kts
24-May-20 13:00 48.522935 -123.024433 177 101ft 85kts
24-May-20 13:01 48.487259 -123.017220 135 1752ft 146kts
24-May-20 13:02 48.513156 -122.983908 317 3610ft 206kts
24-May-20 13:03 48.488515 -123.039448 199 4998ft 209kts
24-May-20 13:04 48.433162 -123.073342 201 5008ft 218kts
24-May-20 13:05 48.377140 -123.108364 201 5000ft 219kts
24-May-20 13:06 48.344941 -123.065363 57 5003ft 229kts
24-May-20 13:07 48.405883 -123.037142 11 5003ft 233kts
24-May-20 13:08 48.458708 -122.981061 41 4122ft 232kts
24-May-20 13:09 48.507641 -122.917508 42 3233ft 231kts
24-May-20 13:10 48.558197 -122.862044 11 3127ft 219kts
24-May-20 13:11 48.616042 -122.876592 344 2110ft 211kts
24-May-20 13:12 48.669776 -122.899416 343 802ft 157kts
24-May-20 13:13 48.697743 -122.910882 359 564ft 94kts
24-May-20 13:14 48.727003 -122.891639 32 1857ft 142kts
24-May-20 13:15 48.762391 -122.853878 35 3118ft 190kts
24-May-20 13:16 48.770872 -122.779353 146 4983ft 246kts
24-May-20 13:17 48.709828 -122.735366 154 5129ft 241kts
24-May-20 13:18 48.648794 -122.692455 154 5175ft 242kts
24-May-20 13:19 48.587515 -122.649068 154 5238ft 241kts
24-May-20 13:20 48.526629 -122.605548 154 5263ft 242kts
24-May-20 13:21 48.465665 -122.561772 154 5267ft 242kts
24-May-20 13:22 48.404453 -122.517899 154 5257ft 243kts
24-May-20 13:23 48.343105 -122.474144 154 5247ft 244kts
24-May-20 13:24 48.301051 -122.519092 271 5255ft 235kts
24-May-20 13:25 48.284841 -122.612786 242 5275ft 236kts
24-May-20 13:26 48.256373 -122.700690 269 5271ft 234kts
24-May-20 13:27 48.303722 -122.757708 344 5283ft 237kts
24-May-20 13:28 48.367842 -122.782347 344 4471ft 233kts
24-May-20 13:30 48.430087 -122.806325 344 3277ft 218kts
24-May-20 13:31 48.484691 -122.827408 345 3260ft 193kts
24-May-20 13:32 48.535600 -122.847124 346 3186ft 183kts
24-May-20 13:33 48.584033 -122.864920 347 3092ft 177kts
24-May-20 13:34 48.630084 -122.883640 340 1936ft 131kts
24-May-20 13:35 48.660176 -122.900299 341 1252ft 112kts
24-May-20 13:36 48.685814 -122.910850 0 649ft 77kts
24-May-20 13:37 48.706452 -122.910603 0 34ft 59kts
24-May-20 13:38 48.711221 -122.909996 180 22ft 11kts
24-May-20 13:39 48.707481 -122.910013 182 31ft 13kts
24-May-20 13:40 48.705392 -122.909754 178 36ft 6kts
24-May-20 13:41 48.705260 -122.909584 95 36ft 0kts
24-May-20 13:42 48.705260 -122.909584 95 36ft 0kts
24-May-20 13:43 48.705260 -122.909584 95 36ft 0kts
24-May-20 13:44 48.705260 -122.909584 95 36ft 0kts
24-May-20 13:45 48.705260 -122.909584 95 36ft 0kts
24-May-20 13:46 48.705260 -122.909584 95 36ft 0kts
24-May-20 13:46 48.705260 -122.909584 95 36ft 0kts
24-May-20 13:48 48.705260 -122.909584 95 36ft 0kts
24-May-20 13:49 48.705260 -122.909584 95 36ft 0kts

Navigation Log

Ident Type
Flight plan parsing failed, navigation log unavailable